Time;durP1;ratioP1;P1;durP2;ratioP2;P2;SDS_P1;SDS_P2;PMS_P1;PMS_P2;Temp;Humidity;BMP_temperature;BMP_pressure;BME280_temperature;BME280_humidity;BME280_pressure;Samples;Min_cycle;Max_cycle;Signal;HPM_P1;HPM_P2
2022/04/26 03:37:32;;;;;;;17.75;6.75;;;4.20;97.80;;;;;;4937823;28;20515;-83
2022/04/26 03:39:58;;;;;;;13.13;6.72;;;4.10;97.70;;;;;;4940972;28;20154;-84
2022/04/26 03:42:24;;;;;;;22.02;6.80;;;4.10;97.80;;;;;;4939423;28;20505;-83
2022/04/26 03:44:49;;;;;;;17.90;6.68;;;4.10;97.80;;;;;;4946589;28;20041;-84
2022/04/26 03:47:15;;;;;;;20.92;7.25;;;4.00;97.90;;;;;;4946338;28;20073;-84
2022/04/26 03:49:41;;;;;;;14.27;6.53;;;4.00;97.90;;;;;;4938155;28;20593;-83
2022/04/26 03:52:06;;;;;;;24.15;7.00;;;4.00;98.00;;;;;;4942918;28;20036;-84
2022/04/26 03:54:33;;;;;;;13.93;6.32;;;4.00;98.00;;;;;;4939816;28;20061;-83
2022/04/26 03:56:59;;;;;;;18.90;7.70;;;4.00;98.10;;;;;;4944753;28;20031;-84
2022/04/26 03:59:24;;;;;;;21.42;8.15;;;4.00;98.20;;;;;;4941421;28;20050;-84
2022/04/26 04:01:50;;;;;;;18.60;8.13;;;4.00;98.30;;;;;;4940640;28;20147;-83
2022/04/26 04:04:16;;;;;;;22.60;8.02;;;4.00;98.30;;;;;;4940534;28;20094;-84
2022/04/26 04:06:41;;;;;;;22.73;8.48;;;4.00;98.40;;;;;;4940392;28;20053;-84
2022/04/26 04:09:07;;;;;;;18.50;7.95;;;4.00;98.60;;;;;;4938301;28;20059;-84
2022/04/26 04:11:33;;;;;;;14.88;7.68;;;4.00;98.50;;;;;;4939447;28;20101;-83
2022/04/26 04:13:58;;;;;;;15.77;8.18;;;4.00;98.60;;;;;;4941781;28;20090;-84
2022/04/26 04:16:24;;;;;;;25.88;8.43;;;4.00;98.60;;;;;;4937189;28;20035;-84
2022/04/26 04:21:34;;;;;;;21.58;8.13;;;4.10;98.80;;;;;;4938307;28;20041;-84
2022/04/26 04:24:00;;;;;;;17.23;8.60;;;4.10;98.70;;;;;;4934626;28;20805;-84
2022/04/26 04:26:25;;;;;;;23.92;8.32;;;4.10;98.90;;;;;;4936942;28;20042;-84
2022/04/26 04:28:51;;;;;;;24.23;7.93;;;4.10;98.90;;;;;;4941229;28;20087;-84
2022/04/26 04:31:17;;;;;;;19.08;7.88;;;4.10;98.80;;;;;;4937243;28;20094;-83
2022/04/26 04:33:45;;;;;;;19.52;7.60;;;4.00;98.80;;;;;;4937985;28;20479;-84
2022/04/26 04:36:11;;;;;;;20.13;7.97;;;4.00;98.90;;;;;;4938077;28;20049;-84
2022/04/26 04:38:36;;;;;;;19.83;7.63;;;4.00;98.90;;;;;;4940051;28;20145;-84
2022/04/26 04:41:02;;;;;;;18.48;8.38;;;4.00;98.90;;;;;;4939877;28;20027;-85
2022/04/26 04:43:28;;;;;;;18.90;8.18;;;4.00;99.00;;;;;;4938641;28;20042;-84
2022/04/26 04:45:54;;;;;;;20.75;9.10;;;4.00;99.00;;;;;;4938139;28;20057;-84
2022/04/26 04:48:19;;;;;;;21.08;9.13;;;4.00;99.00;;;;;;4939643;28;20043;-82
2022/04/26 04:50:45;;;;;;;22.42;9.30;;;4.00;99.00;;;;;;4937699;28;20102;-84
2022/04/26 04:53:11;;;;;;;20.27;8.00;;;4.00;99.00;;;;;;4938523;28;20127;-84
2022/04/26 04:55:40;;;;;;;22.80;8.23;;;4.00;99.00;;;;;;4947757;28;20035;-84
2022/04/26 04:58:07;;;;;;;22.35;8.18;;;4.00;99.00;;;;;;4942016;28;20042;-84
2022/04/26 05:00:32;;;;;;;23.88;9.35;;;4.00;99.10;;;;;;4939930;28;20027;-84
2022/04/26 05:02:58;;;;;;;18.10;8.50;;;4.10;99.10;;;;;;4939955;28;20065;-84
2022/04/26 05:05:24;;;;;;;21.38;8.27;;;4.00;99.10;;;;;;4938611;28;20030;-84
2022/04/26 05:07:50;;;;;;;26.42;9.65;;;4.10;99.20;;;;;;4954857;28;20035;-84
2022/04/26 05:10:15;;;;;;;22.55;7.50;;;4.20;99.20;;;;;;4941940;28;20046;-84
2022/04/26 05:12:41;;;;;;;14.65;7.88;;;4.20;99.20;;;;;;4937609;28;20082;-84
2022/04/26 05:15:07;;;;;;;19.95;7.60;;;4.20;99.30;;;;;;4939065;28;20063;-84
2022/04/26 05:17:33;;;;;;;22.10;7.72;;;4.30;99.30;;;;;;4939810;28;20509;-84
2022/04/26 05:19:59;;;;;;;22.35;7.57;;;4.30;99.20;;;;;;4940277;28;20031;-83
2022/04/26 05:22:24;;;;;;;19.90;7.30;;;4.30;99.20;;;;;;4936015;28;20045;-84
2022/04/26 05:24:59;;;;;;;18.58;8.45;;;4.40;99.20;;;;;;4940536;28;20086;-83
2022/04/26 05:27:29;;;;;;;18.20;8.32;;;4.40;99.20;;;;;;4956511;28;20039;-84
2022/04/26 05:29:55;;;;;;;22.35;7.40;;;4.50;99.30;;;;;;4932621;28;20043;-84
2022/04/26 05:32:27;;;;;;;17.73;6.88;;;4.50;99.30;;;;;;4940454;28;20043;-84
2022/04/26 05:34:58;;;;;;;19.05;7.15;;;4.60;99.30;;;;;;4940413;28;20051;-83
2022/04/26 05:37:23;;;;;;;18.05;7.70;;;4.70;99.30;;;;;;4939314;28;20062;-84
2022/04/26 05:39:49;;;;;;;18.23;8.07;;;4.70;99.20;;;;;;4946362;28;20527;-83
2022/04/26 05:42:14;;;;;;;21.63;8.35;;;4.80;99.20;;;;;;4937761;28;20039;-84
2022/04/26 05:44:42;;;;;;;17.23;6.93;;;4.80;99.20;;;;;;4936441;28;20031;-84
2022/04/26 05:47:09;;;;;;;26.90;8.50;;;4.80;99.20;;;;;;4934161;28;20035;-84
2022/04/26 05:49:35;;;;;;;13.38;6.70;;;4.90;99.20;;;;;;4934503;28;20043;-84
2022/04/26 05:52:02;;;;;;;17.63;8.20;;;5.00;99.20;;;;;;4936799;28;20969;-84
2022/04/26 05:54:27;;;;;;;20.00;8.77;;;5.00;99.10;;;;;;4941600;28;20041;-84
2022/04/26 05:56:53;;;;;;;20.38;8.63;;;5.10;99.10;;;;;;4936022;28;20031;-83
2022/04/26 05:59:20;;;;;;;20.58;7.38;;;5.20;99.10;;;;;;4958455;28;20050;-82
2022/04/26 06:01:45;;;;;;;17.45;7.57;;;5.20;99.00;;;;;;4944363;28;20019;-83
2022/04/26 06:04:11;;;;;;;18.13;7.68;;;5.30;99.30;;;;;;4942349;28;20050;-84
2022/04/26 06:06:36;;;;;;;25.65;9.10;;;5.40;99.00;;;;;;4940070;28;20768;-83
2022/04/26 06:09:05;;;;;;;67.75;30.00;;;5.40;98.90;;;;;;4942792;28;20027;-84
2022/04/26 06:11:31;;;;;;;36.05;12.98;;;5.60;98.90;;;;;;4936295;28;20035;-83
2022/04/26 06:13:57;;;;;;;44.67;18.33;;;5.70;98.80;;;;;;4943858;28;20102;-84
2022/04/26 06:16:23;;;;;;;23.15;9.13;;;5.80;98.70;;;;;;4941596;28;20044;-83
2022/04/26 06:18:49;;;;;;;17.17;8.60;;;6.00;98.70;;;;;;4944101;28;20027;-82
2022/04/26 06:21:15;;;;;;;21.52;7.63;;;6.10;98.40;;;;;;4938913;28;20027;-83
2022/04/26 06:23:41;;;;;;;17.33;5.97;;;6.30;98.20;;;;;;4945295;28;20046;-85
2022/04/26 06:26:06;;;;;;;16.30;7.63;;;6.40;97.80;;;;;;4952391;28;20028;-82
2022/04/26 06:28:32;;;;;;;16.80;6.30;;;6.60;97.50;;;;;;4950714;28;20503;-82
2022/04/26 06:30:58;;;;;;;33.10;9.43;;;6.80;97.10;;;;;;4952212;28;20116;-83
2022/04/26 06:33:24;;;;;;;19.45;6.47;;;6.80;96.20;;;;;;4929486;28;20126;-82
2022/04/26 06:35:49;;;;;;;14.27;6.13;;;7.00;95.80;;;;;;4940146;28;20042;-83
2022/04/26 06:38:19;;;;;;;13.30;6.93;;;7.00;95.60;;;;;;4937476;28;20031;-83
2022/04/26 06:40:46;;;;;;;17.25;6.10;;;7.20;95.30;;;;;;4934925;28;20735;-83
2022/04/26 06:43:12;;;;;;;15.55;6.60;;;7.30;94.80;;;;;;4936599;28;20035;-82
2022/04/26 06:45:38;;;;;;;10.82;5.28;;;7.50;94.40;;;;;;4944046;28;20510;-81
2022/04/26 06:48:11;;;;;;;25.23;13.88;;;7.60;94.00;;;;;;4942040;28;20118;-81
2022/04/26 06:50:37;;;;;;;12.40;4.93;;;7.80;93.40;;;;;;4936267;28;20035;-83
2022/04/26 06:53:04;;;;;;;11.70;4.75;;;8.00;92.60;;;;;;4941950;28;20039;-82
2022/04/26 06:55:29;;;;;;;12.75;5.10;;;8.10;92.50;;;;;;4941245;28;20063;-82
2022/04/26 06:57:55;;;;;;;17.35;5.63;;;8.20;92.50;;;;;;4941877;28;20070;-83
2022/04/26 07:00:21;;;;;;;16.13;6.10;;;8.30;92.20;;;;;;4940215;28;20038;-81
2022/04/26 07:02:47;;;;;;;72.72;36.08;;;8.40;92.30;;;;;;4943663;28;20039;-81
2022/04/26 07:05:14;;;;;;;11.93;5.25;;;8.70;91.80;;;;;;4966049;28;20139;-83
2022/04/26 07:07:40;;;;;;;14.57;4.65;;;8.80;90.70;;;;;;4948181;28;20057;-81
2022/04/26 07:10:07;;;;;;;8.90;4.20;;;8.90;90.30;;;;;;4951891;28;20054;-81
2022/04/26 07:12:33;;;;;;;9.00;4.65;;;9.10;90.40;;;;;;4938172;28;20047;-80
2022/04/26 07:14:59;;;;;;;11.07;4.10;;;9.60;88.90;;;;;;4938123;28;20062;-81
2022/04/26 07:17:25;;;;;;;13.88;4.72;;;9.60;87.20;;;;;;4938893;28;20035;-82
2022/04/26 07:19:52;;;;;;;9.63;3.80;;;9.60;88.20;;;;;;4938790;28;20423;-80
2022/04/26 07:22:17;;;;;;;13.63;4.07;;;9.70;86.60;;;;;;4942667;28;20051;-80
2022/04/26 07:24:44;;;;;;;12.00;4.38;;;9.60;87.20;;;;;;4943148;28;20091;-81
2022/04/26 07:27:10;;;;;;;8.30;3.63;;;9.70;87.20;;;;;;4932019;28;20031;-82
2022/04/26 07:29:41;;;;;;;8.45;3.90;;;9.90;86.00;;;;;;4938869;28;20134;-81
2022/04/26 07:32:07;;;;;;;7.68;3.88;;;10.40;86.40;;;;;;4936539;28;20034;-84
2022/04/26 07:34:33;;;;;;;12.30;3.33;;;10.70;83.80;;;;;;4933198;28;20847;-78
2022/04/26 07:36:59;;;;;;;5.97;3.15;;;10.70;81.30;;;;;;4929418;28;20032;-82
2022/04/26 07:39:26;;;;;;;4.88;2.50;;;10.80;83.40;;;;;;4937196;28;20030;-82
2022/04/26 07:41:51;;;;;;;6.88;2.40;;;10.80;81.20;;;;;;4937401;28;20023;-77
2022/04/26 07:44:17;;;;;;;9.23;2.80;;;11.10;79.20;;;;;;4927763;28;20852;-83
2022/04/26 07:46:45;;;;;;;8.38;2.40;;;11.50;79.60;;;;;;4927975;28;20042;-83
2022/04/26 07:49:15;;;;;;;6.88;2.00;;;14.10;72.40;;;;;;4939083;28;20554;-79
2022/04/26 07:51:41;;;;;;;5.50;1.88;;;18.70;58.40;;;;;;4936127;28;20033;-84
2022/04/26 07:54:08;;;;;;;5.22;1.85;;;21.00;47.30;;;;;;4933486;28;20066;-84
2022/04/26 07:56:34;;;;;;;5.60;1.45;;;23.20;43.60;;;;;;4934756;28;20036;-83
2022/04/26 07:59:01;;;;;;;4.55;1.98;;;26.00;37.50;;;;;;4931434;28;20042;-85
2022/04/26 08:01:28;;;;;;;6.50;1.88;;;25.90;35.30;;;;;;4926454;28;20039;-81
2022/04/26 08:03:54;;;;;;;3.90;1.50;;;27.10;34.90;;;;;;4936599;28;20039;-83
2022/04/26 08:06:20;;;;;;;3.03;1.23;;;27.60;31.90;;;;;;4926097;28;20035;-83
2022/04/26 08:08:46;;;;;;;2.38;1.33;;;28.10;32.00;;;;;;4927422;28;20034;-81
2022/04/26 08:11:13;;;;;;;3.25;1.15;;;29.70;30.10;;;;;;4935896;28;20043;-78
2022/04/26 08:13:42;;;;;;;3.53;1.10;;;30.20;29.40;;;;;;4931083;28;20126;-84
2022/04/26 08:16:09;;;;;;;4.13;1.33;;;28.70;29.60;;;;;;4936762;28;20561;-80
2022/04/26 08:18:36;;;;;;;3.17;0.98;;;30.10;29.90;;;;;;4929044;28;20114;-79
2022/04/26 08:21:02;;;;;;;3.60;1.00;;;30.50;27.40;;;;;;4944118;28;20046;-85
2022/04/26 08:23:28;;;;;;;2.00;0.80;;;30.30;25.70;;;;;;4940894;28;20837;-78
2022/04/26 08:28:38;;;;;;;1.75;0.70;;;28.70;27.10;;;;;;4937352;28;20045;-76
2022/04/26 08:31:05;;;;;;;3.78;0.75;;;29.50;25.80;;;;;;4940621;28;20558;-84
2022/04/26 08:33:34;;;;;;;2.10;0.50;;;28.80;27.00;;;;;;4942161;28;20066;-81
2022/04/26 08:36:01;;;;;;;3.78;0.70;;;29.70;26.00;;;;;;4930638;28;20475;-80
2022/04/26 08:38:26;;;;;;;3.03;0.98;;;28.80;25.20;;;;;;4931094;28;20718;-83
2022/04/26 08:40:52;;;;;;;1.15;0.50;;;29.00;25.40;;;;;;4929787;28;20038;-81
2022/04/26 08:43:18;;;;;;;2.13;0.68;;;28.90;25.40;;;;;;4927760;28;20637;-79
2022/04/26 08:45:46;;;;;;;2.50;0.55;;;28.40;23.70;;;;;;4928744;28;20041;-83
2022/04/26 08:51:00;;;;;;;2.30;0.80;;;28.50;24.80;;;;;;4928418;28;20093;-80
2022/04/26 08:53:27;;;;;;;1.15;0.80;;;27.80;23.10;;;;;;4930047;28;20035;-76
2022/04/26 08:56:01;;;;;;;2.63;0.40;;;27.60;28.10;;;;;;4926394;28;20034;-78
2022/04/26 08:58:30;;;;;;;0.90;0.70;;;28.40;23.70;;;;;;4923896;28;20437;-78
2022/04/26 09:01:16;;;;;;;1.40;0.60;;;27.90;23.80;;;;;;4924767;28;20174;-77
2022/04/26 09:03:54;;;;;;;1.08;0.55;;;27.60;24.00;;;;;;4935011;28;20075;-76
2022/04/26 09:06:23;;;;;;;0.63;0.50;;;28.10;23.60;;;;;;4932076;28;20117;-80
2022/04/26 09:08:49;;;;;;;0.40;0.40;;;27.90;25.50;;;;;;4944113;28;20035;-77
2022/04/26 09:11:26;;;;;;;0.93;0.50;;;28.40;24.70;;;;;;4937964;28;20035;-77
2022/04/26 09:13:52;;;;;;;1.67;0.60;;;27.70;23.20;;;;;;4931934;28;20035;-80
2022/04/26 09:16:20;;;;;;;1.73;0.82;;;27.00;25.60;;;;;;4959733;28;20649;-79
2022/04/26 09:19:00;;;;;;;1.00;0.70;;;26.90;24.40;;;;;;4939177;28;20090;-79
2022/04/26 09:21:28;;;;;;;1.98;0.90;;;26.60;26.10;;;;;;4932416;28;20047;-78
2022/04/26 09:24:06;;;;;;;2.22;0.80;;;26.70;26.90;;;;;;4937640;28;20416;-77
2022/04/26 09:26:33;;;;;;;2.45;0.98;;;26.80;23.70;;;;;;4938929;28;20027;-81
2022/04/26 09:28:58;;;;;;;2.58;0.88;;;26.50;26.70;;;;;;4937043;28;20027;-77
2022/04/26 09:31:30;;;;;;;2.60;0.68;;;26.70;25.80;;;;;;4940138;28;20042;-81
2022/04/26 09:34:04;;;;;;;;;;;27.20;25.90;;;;;;4598679;28;10001301;-76
2022/04/26 09:36:31;;;;;;;2.58;1.02;;;26.40;26.20;;;;;;4933976;28;20095;-79
2022/04/26 09:39:00;;;;;;;1.90;0.98;;;26.30;24.80;;;;;;4933468;28;20031;-77
2022/04/26 09:41:28;;;;;;;1.38;1.10;;;25.50;25.10;;;;;;4934540;28;20126;-77
2022/04/26 09:44:03;;;;;;;0.70;0.60;;;25.50;26.10;;;;;;4932196;28;20035;-74
2022/04/26 09:46:40;;;;;;;1.25;0.82;;;25.90;28.70;;;;;;4933640;28;20078;-77
2022/04/26 09:49:09;;;;;;;1.77;0.70;;;26.90;29.10;;;;;;4926377;28;20090;-77
2022/04/26 09:51:36;;;;;;;2.42;0.80;;;27.10;28.60;;;;;;4933127;28;20507;-75
2022/04/26 09:54:02;;;;;;;1.30;0.82;;;27.40;24.00;;;;;;4939617;28;20333;-76
2022/04/26 09:56:31;;;;;;;2.38;1.00;;;26.80;23.20;;;;;;4928165;28;20049;-75
2022/04/26 09:59:00;;;;;;;1.50;0.77;;;27.00;27.20;;;;;;4938495;28;20046;-78
2022/04/26 10:01:47;;;;;;;1.27;0.60;;;26.60;24.80;;;;;;4944106;28;20030;-76
2022/04/26 10:04:19;;;;;;;1.02;0.77;;;26.60;24.10;;;;;;4941742;28;20077;-77
2022/04/26 10:06:47;;;;;;;0.88;0.57;;;26.40;24.60;;;;;;4938758;28;20030;-77
2022/04/26 10:09:13;;;;;;;0.85;0.60;;;26.50;24.90;;;;;;4940607;28;20045;-79
2022/04/26 10:11:39;;;;;;;3.22;0.68;;;26.20;23.40;;;;;;4938654;28;20023;-80
2022/04/26 10:14:07;;;;;;;2.55;1.00;;;25.90;26.60;;;;;;4937479;28;20039;-78
2022/04/26 10:16:33;;;;;;;2.72;0.57;;;25.50;25.10;;;;;;4939713;28;20039;-78
2022/04/26 10:19:07;;;;;;;3.80;0.75;;;26.00;28.50;;;;;;4938214;28;20086;-76
2022/04/26 10:21:35;;;;;;;3.38;1.25;;;26.20;27.50;;;;;;4939723;28;20239;-75
2022/04/26 10:24:04;;;;;;;1.80;0.70;;;26.10;23.30;;;;;;4937359;28;20122;-77
2022/04/26 10:26:30;;;;;;;2.55;0.77;;;26.10;28.10;;;;;;4592249;28;9999733;-78
2022/04/26 10:29:19;;;;;;;1.60;0.73;;;26.00;26.20;;;;;;4934899;28;20035;-76
2022/04/26 10:31:56;;;;;;;1.73;0.68;;;26.40;25.60;;;;;;4935806;28;20023;-77
2022/04/26 10:34:26;;;;;;;1.23;1.00;;;26.40;24.10;;;;;;4944525;28;20653;-79
2022/04/26 10:37:00;;;;;;;1.50;0.77;;;26.10;28.00;;;;;;4949697;28;20086;-78
2022/04/26 10:39:31;;;;;;;1.70;0.85;;;26.70;24.70;;;;;;4936898;28;20133;-77
2022/04/26 10:41:58;;;;;;;1.67;0.77;;;26.20;24.40;;;;;;4936451;28;20310;-76
2022/04/26 10:44:26;;;;;;;2.35;1.10;;;25.80;26.40;;;;;;4937139;28;20043;-76
2022/04/26 10:46:58;;;;;;;2.00;1.08;;;26.10;26.60;;;;;;4913401;29;20032;-76
2022/04/26 10:49:38;;;;;;;2.10;1.00;;;26.50;24.20;;;;;;4931029;28;20251;-75
2022/04/26 10:52:19;;;;;;;1.13;0.88;;;26.30;24.90;;;;;;4933047;28;20090;-76
2022/04/26 10:55:03;;;;;;;;;;;25.90;27.20;;;;;;4947994;28;20040;-74
2022/04/26 10:57:30;;;;;;;1.50;1.00;;;25.30;25.00;;;;;;4929612;28;19924;-76
2022/04/26 11:00:17;;;;;;;3.40;1.10;;;24.70;25.90;;;;;;4930329;28;20110;-79
2022/04/26 11:02:46;;;;;;;1.70;0.98;;;24.70;28.20;;;;;;4938731;28;20039;-80
2022/04/26 11:05:26;;;;;;;1.10;1.00;;;25.10;26.10;;;;;;4936213;28;20039;-75
2022/04/26 11:07:53;;;;;;;1.40;1.00;;;24.70;25.60;;;;;;4929626;28;20042;-78
2022/04/26 11:10:20;;;;;;;1.20;1.10;;;24.30;29.10;;;;;;4932209;28;20050;-77
2022/04/26 11:12:46;;;;;;;1.73;0.90;;;23.90;26.90;;;;;;4935167;28;20039;-79
2022/04/26 11:15:13;;;;;;;1.92;1.00;;;24.00;29.50;;;;;;4936334;28;20266;-76
2022/04/26 11:17:40;;;;;;;2.35;1.00;;;24.00;26.60;;;;;;4940363;28;20623;-77
2022/04/26 11:20:17;;;;;;;1.60;1.25;;;24.40;29.50;;;;;;4935513;28;20059;-77
2022/04/26 11:22:43;;;;;;;2.05;0.90;;;24.70;26.80;;;;;;4957648;28;20038;-82
2022/04/26 11:28:00;;;;;;;1.08;0.85;;;24.10;29.20;;;;;;4937864;28;20395;-73
2022/04/26 11:30:37;;;;;;;2.63;1.10;;;23.00;28.50;;;;;;4938198;28;20047;-76
2022/04/26 11:33:08;;;;;;;2.25;1.13;;;22.10;29.50;;;;;;4939643;28;20708;-76
2022/04/26 11:35:35;;;;;;;1.08;0.98;;;21.70;29.50;;;;;;4941184;28;20089;-79
2022/04/26 11:38:09;;;;;;;3.20;1.33;;;21.00;37.20;;;;;;4941589;28;20118;-78
2022/04/26 11:40:41;;;;;;;3.47;1.25;;;20.70;30.60;;;;;;4942129;28;20034;-76
2022/04/26 11:43:10;;;;;;;;;;;20.60;31.60;;;;;;4954802;28;20050;-78
2022/04/26 11:45:36;;;;;;;4.40;1.10;;;20.90;34.00;;;;;;4942598;28;20002;-85
2022/04/26 11:48:03;;;;;;;4.43;1.17;;;20.60;36.10;;;;;;4938492;28;20200;-77
2022/04/26 11:50:30;;;;;;;2.30;1.50;;;20.70;38.10;;;;;;4597464;28;9999760;-78
2022/04/26 11:53:04;;;;;;;3.22;1.25;;;20.60;33.90;;;;;;4945660;28;20142;-78
2022/04/26 11:55:32;;;;;;;2.63;1.02;;;20.80;32.70;;;;;;4948155;28;20062;-78
2022/04/26 11:58:27;;;;;;;1.67;1.00;;;20.40;31.20;;;;;;4947632;28;20035;-76
2022/04/26 12:01:03;;;;;;;2.95;1.23;;;19.70;34.40;;;;;;4928930;28;20588;-77
2022/04/26 12:03:41;;;;;;;1.75;1.10;;;19.70;44.40;;;;;;4938492;28;20038;-75
2022/04/26 12:06:09;;;;;;;1.10;1.00;;;19.40;33.20;;;;;;4933235;28;20042;-74
2022/04/26 12:08:43;;;;;;;1.15;0.80;;;19.40;35.10;;;;;;4936786;28;20254;-76
2022/04/26 12:11:16;;;;;;;3.28;1.00;;;19.80;35.50;;;;;;4940774;28;20399;-76
2022/04/26 12:13:42;;;;;;;2.80;1.42;;;20.00;33.90;;;;;;4933946;28;20055;-75
2022/04/26 12:16:19;;;;;;;2.03;1.10;;;20.20;35.10;;;;;;4940356;28;20651;-75
2022/04/26 12:18:53;;;;;;;1.50;1.15;;;20.30;32.10;;;;;;4939092;28;20111;-77
2022/04/26 12:21:19;;;;;;;1.33;1.23;;;20.30;34.30;;;;;;4938244;28;20080;-76
2022/04/26 12:23:45;;;;;;;2.80;0.90;;;20.10;30.00;;;;;;4926815;28;20035;-75
2022/04/26 12:26:10;;;;;;;0.95;0.95;;;19.90;34.90;;;;;;4929763;28;20415;-75
2022/04/26 12:28:48;;;;;;;3.88;1.00;;;20.10;31.50;;;;;;4933990;28;20039;-75
2022/04/26 12:31:22;;;;;;;0.98;0.98;;;20.10;33.20;;;;;;4936164;28;20032;-76
2022/04/26 12:33:52;;;;;;;0.95;0.80;;;20.30;32.20;;;;;;4935368;28;20047;-75
2022/04/26 12:36:18;;;;;;;0.70;0.70;;;20.40;33.10;;;;;;4936773;28;20039;-74
2022/04/26 12:38:50;;;;;;;1.48;0.70;;;20.40;30.70;;;;;;4940865;28;20541;-74
2022/04/26 12:41:15;;;;;;;1.05;0.80;;;20.50;32.80;;;;;;4938187;28;20115;-77
2022/04/26 12:43:43;;;;;;;1.42;1.10;;;20.50;30.80;;;;;;4944776;28;20536;-77
2022/04/26 12:46:09;;;;;;;0.90;0.80;;;20.40;29.70;;;;;;4937926;28;20058;-77
2022/04/26 12:51:22;;;;;;;2.60;1.27;;;20.40;34.90;;;;;;4935767;28;20093;-78
2022/04/26 12:53:49;;;;;;;1.33;0.98;;;20.40;31.70;;;;;;4921179;28;20464;-80
2022/04/26 12:56:15;;;;;;;4.30;2.53;;;20.30;32.90;;;;;;4935841;28;20031;-76
2022/04/26 12:58:42;;;;;;;1.50;1.00;;;20.20;33.60;;;;;;4936527;28;20086;-80
2022/04/26 13:01:09;;;;;;;1.60;0.90;;;20.10;32.70;;;;;;4944584;28;20050;-77
2022/04/26 13:03:36;;;;;;;0.90;0.88;;;20.00;31.90;;;;;;4939305;28;20063;-77
2022/04/26 13:06:18;;;;;;;3.20;1.58;;;19.80;32.10;;;;;;4600963;28;9999971;-78
2022/04/26 13:08:48;;;;;;;1.60;1.50;;;19.90;34.40;;;;;;4932726;28;20039;-78
2022/04/26 13:11:17;;;;;;;2.78;1.42;;;19.90;32.20;;;;;;4934679;28;20498;-77
2022/04/26 13:13:49;;;;;;;1.15;0.93;;;19.60;35.20;;;;;;4942461;28;20150;-79
2022/04/26 13:16:16;;;;;;;2.33;1.10;;;19.50;37.00;;;;;;4939389;28;20059;-80
2022/04/26 13:18:42;;;;;;;1.75;1.38;;;19.50;31.20;;;;;;4933616;28;20130;-82
2022/04/26 13:21:08;;;;;;;1.25;1.15;;;19.30;31.60;;;;;;4940080;28;20097;-77
2022/04/26 13:23:34;;;;;;;29.20;17.17;;;19.20;32.60;;;;;;4943165;28;20562;-75
2022/04/26 13:26:01;;;;;;;2.33;1.30;;;19.30;33.90;;;;;;4939317;28;20022;-74
2022/04/26 13:28:27;;;;;;;1.75;1.10;;;19.40;35.30;;;;;;4945741;28;20030;-75
2022/04/26 13:30:53;;;;;;;2.03;1.08;;;19.40;34.50;;;;;;4935582;28;20031;-75
2022/04/26 13:33:19;;;;;;;0.80;0.80;;;19.30;33.70;;;;;;4936431;28;20463;-75
2022/04/26 13:35:45;;;;;;;1.75;1.20;;;19.00;32.70;;;;;;4934858;28;20486;-77
2022/04/26 13:38:12;;;;;;;11.95;5.80;;;19.10;31.50;;;;;;4935391;28;20090;-78
2022/04/26 13:40:39;;;;;;;1.95;0.77;;;19.20;35.10;;;;;;4937283;28;20062;-75
2022/04/26 13:43:06;;;;;;;1.75;0.98;;;19.20;32.40;;;;;;4940543;28;20035;-77
2022/04/26 13:45:32;;;;;;;3.80;1.98;;;19.00;31.70;;;;;;4939423;28;20035;-78
2022/04/26 13:48:01;;;;;;;3.58;1.15;;;18.70;33.40;;;;;;4933376;28;20035;-83
2022/04/26 13:50:28;;;;;;;0.98;0.98;;;18.70;34.10;;;;;;4934492;28;20119;-77
2022/04/26 13:52:54;;;;;;;3.42;1.20;;;18.80;33.80;;;;;;4928855;28;20035;-82
2022/04/26 13:55:19;;;;;;;1.45;1.02;;;18.90;31.90;;;;;;4930527;28;20019;-78
2022/04/26 13:57:46;;;;;;;1.67;1.08;;;19.00;31.80;;;;;;4934570;28;20510;-77
2022/04/26 14:00:13;;;;;;;1.40;1.30;;;18.80;30.90;;;;;;4938732;28;20094;-76
2022/04/26 14:02:41;;;;;;;0.88;0.88;;;18.50;33.30;;;;;;4937875;28;20031;-78
2022/04/26 14:05:07;;;;;;;1.65;0.98;;;18.40;32.00;;;;;;4938153;28;20403;-76
2022/04/26 14:07:33;;;;;;;2.72;1.42;;;18.40;34.40;;;;;;4934790;28;20114;-77
2022/04/26 14:09:59;;;;;;;2.58;0.95;;;18.60;33.80;;;;;;4933795;28;20157;-81
2022/04/26 14:12:24;;;;;;;2.95;0.80;;;18.70;35.30;;;;;;4936383;28;20043;-76
2022/04/26 14:23:03;;;;;;;1.95;1.00;;;18.50;34.90;;;;;;4936056;28;20033;-75
2022/04/26 14:25:29;;;;;;;4.57;1.30;;;18.40;32.80;;;;;;4935721;28;20315;-78
2022/04/26 14:27:54;;;;;;;1.80;1.40;;;18.40;33.00;;;;;;4937447;28;20035;-74
2022/04/26 14:30:20;;;;;;;2.53;1.30;;;18.40;31.90;;;;;;4935506;28;20415;-75
2022/04/26 14:32:45;;;;;;;1.63;1.00;;;18.10;36.90;;;;;;4938512;28;20129;-76
2022/04/26 14:35:12;;;;;;;1.20;1.02;;;18.20;38.40;;;;;;4941758;28;20027;-74
2022/04/26 14:37:38;;;;;;;1.38;1.10;;;18.40;35.80;;;;;;4935958;28;20042;-75
2022/04/26 14:40:05;;;;;;;1.35;1.15;;;18.30;35.60;;;;;;4938510;28;20031;-75
2022/04/26 14:42:31;;;;;;;1.33;1.23;;;18.50;34.00;;;;;;4940203;28;20110;-81
2022/04/26 14:44:57;;;;;;;1.45;1.00;;;18.60;34.20;;;;;;4962809;28;20153;-74
2022/04/26 14:47:26;;;;;;;1.10;1.10;;;18.60;34.30;;;;;;4952959;28;20487;-77
2022/04/26 14:49:59;;;;;;;2.15;0.90;;;18.30;34.10;;;;;;4938192;28;20592;-78
2022/04/26 14:52:25;;;;;;;1.55;0.98;;;18.10;35.40;;;;;;4941381;28;20030;-77
2022/04/26 14:54:51;;;;;;;1.20;1.10;;;18.10;35.80;;;;;;4939972;28;20212;-77
2022/04/26 14:57:17;;;;;;;1.17;0.93;;;18.00;35.60;;;;;;4942961;28;20031;-76
2022/04/26 14:59:46;;;;;;;2.67;1.10;;;18.00;40.00;;;;;;4926894;28;20031;-76
2022/04/26 15:02:13;;;;;;;3.17;1.70;;;17.80;35.10;;;;;;4934078;28;20039;-78
2022/04/26 15:04:40;;;;;;;1.60;1.38;;;18.00;36.40;;;;;;4927674;28;20031;-77
2022/04/26 15:07:05;;;;;;;2.53;1.27;;;17.70;34.80;;;;;;4936599;28;20439;-76
2022/04/26 15:09:43;;;;;;;4.00;1.52;;;17.60;34.30;;;;;;4935594;28;20031;-76
2022/04/26 15:17:43;;;;;;;3.15;1.63;;;17.30;35.60;;;;;;4935660;28;20093;-77
2022/04/26 15:20:10;;;;;;;1.40;1.27;;;17.50;35.10;;;;;;4943692;28;20114;-75
2022/04/26 15:22:37;;;;;;;2.65;1.05;;;17.40;37.70;;;;;;4933849;28;20574;-82
2022/04/26 15:25:06;;;;;;;2.20;1.15;;;17.30;38.70;;;;;;4930593;28;20046;-78
2022/04/26 15:27:34;;;;;;;2.22;1.48;;;17.20;37.60;;;;;;4939208;28;20031;-78
2022/04/26 15:30:04;;;;;;;1.50;1.15;;;17.60;36.50;;;;;;4935753;28;20110;-75
2022/04/26 15:32:30;;;;;;;1.33;1.23;;;18.00;41.30;;;;;;4939375;28;20562;-73
2022/04/26 15:34:56;;;;;;;1.65;1.30;;;18.40;36.20;;;;;;4933903;28;20035;-74
2022/04/26 15:37:24;;;;;;;5.95;1.55;;;18.80;35.50;;;;;;4926740;28;20035;-74
2022/04/26 15:39:50;;;;;;;3.80;1.30;;;18.80;33.00;;;;;;4924748;28;20043;-74
2022/04/26 15:42:18;;;;;;;5.00;1.10;;;18.80;34.90;;;;;;4935843;28;20109;-75
2022/04/26 15:44:44;;;;;;;2.88;1.70;;;18.90;36.60;;;;;;4935247;28;20027;-75
2022/04/26 15:47:10;;;;;;;2.35;1.23;;;18.80;35.80;;;;;;4908072;28;20043;-77
2022/04/26 15:49:35;;;;;;;1.88;1.67;;;18.70;34.00;;;;;;4931958;28;20042;-74
2022/04/26 15:52:01;;;;;;;1.70;1.30;;;18.30;36.00;;;;;;4934495;28;20278;-75
2022/04/26 15:54:27;;;;;;;1.85;1.52;;;18.10;36.50;;;;;;4934460;28;20039;-74
2022/04/26 15:56:52;;;;;;;2.28;1.23;;;17.80;38.50;;;;;;4931747;28;20037;-74
2022/04/26 15:59:18;;;;;;;1.40;1.30;;;17.70;39.10;;;;;;4938855;28;20499;-75
2022/04/26 16:01:45;;;;;;;2.50;1.73;;;17.40;36.60;;;;;;4932899;28;20054;-74
2022/04/26 16:04:11;;;;;;;3.28;1.45;;;17.20;39.10;;;;;;4930020;28;20042;-76
2022/04/26 16:06:44;;;;;;;1.60;1.50;;;16.90;39.70;;;;;;4925843;28;20038;-79
2022/04/26 16:22:54;;;;;;;2.13;1.70;;;16.30;40.90;;;;;;4927131;28;20042;-77
2022/04/26 16:25:20;;;;;;;2.83;1.25;;;16.10;41.60;;;;;;4929138;28;20043;-75
2022/04/26 16:27:48;;;;;;;1.95;1.30;;;15.90;46.80;;;;;;4931745;28;20038;-75
2022/04/26 16:30:17;;;;;;;2.17;1.98;;;15.90;42.60;;;;;;4934904;28;20126;-75
2022/04/26 16:32:43;;;;;;;1.90;1.40;;;16.00;43.30;;;;;;4928426;28;20114;-77
2022/04/26 16:35:13;;;;;;;3.67;1.48;;;16.00;42.20;;;;;;4931680;28;20031;-77
2022/04/26 16:37:39;;;;;;;2.35;1.90;;;16.10;44.10;;;;;;4933028;28;20046;-77
2022/04/26 16:40:06;;;;;;;2.28;1.35;;;16.10;44.00;;;;;;4925521;28;20042;-76
2022/04/26 16:42:32;;;;;;;3.75;1.65;;;16.10;42.80;;;;;;4932728;28;20034;-77
2022/04/26 16:44:57;;;;;;;2.90;1.55;;;16.20;39.80;;;;;;4935449;28;20035;-77
2022/04/26 16:47:23;;;;;;;1.63;1.52;;;16.10;41.20;;;;;;4931310;28;20037;-78
2022/04/26 16:49:49;;;;;;;1.75;1.63;;;16.10;45.80;;;;;;4933897;28;20043;-75
2022/04/26 16:52:15;;;;;;;4.63;2.83;;;16.10;45.20;;;;;;4923851;28;20035;-76
2022/04/26 16:54:41;;;;;;;4.78;1.55;;;16.00;43.10;;;;;;4931957;28;20120;-74
2022/04/26 16:57:07;;;;;;;2.72;1.80;;;15.90;42.50;;;;;;4924586;28;20019;-77
2022/04/26 16:59:32;;;;;;;3.67;1.98;;;15.70;43.90;;;;;;4931997;28;20105;-77
2022/04/26 17:01:58;;;;;;;1.42;1.33;;;15.60;44.30;;;;;;4929192;28;20057;-77
2022/04/26 17:04:24;;;;;;;4.53;2.00;;;15.60;47.20;;;;;;4577656;28;10000078;-75
2022/04/26 17:06:50;;;;;;;4.10;2.20;;;15.60;44.60;;;;;;4919494;28;20739;-76
2022/04/26 17:09:16;;;;;;;2.33;1.40;;;15.60;47.50;;;;;;4932180;28;20031;-75